Nearby METAR Reports

 

EGQS - Lossiemouth Raf, United Kingdom
Distance from station: NW 60mi, 97km
Updated: 18/10/2019 06:50
Clear
Clear
 Wind from SE
Wind: SE 7 mph , 11 km/h
Temperature: 8°C
Wind Chill: 6°C
Dew Point: 7°C
Humidity: 93%
Barometer: 995 hPa
Summary: Clear
Visibility: greater than 7 miles , 10 km
2019/10/18 05:50 EGQS 180550Z 14006KT CAVOK 08/07 Q0995 TEMPO SCT022 RMK BLU TEMPO WHT